KJVL/JVL METAR and TAF weather

Enter ICAO airport designator
Station Type Date Time Source
KJVL METAR 2019/10/23 02:15 UTC NOAA

KJVL 230215Z AUTO 26016G24KT 10SM CLR 08/00 A2972 RMK AO2


Station Type Date Time Source
KJVL Decoded METAR 2019/10/23 02:15 UTC NOAA

Janesville / Rock County, WI, United States (KJVL) 42-37N 089-02W
Oct 22, 2019 - 10:15 PM EDT / 2019.10.23 0215 UTC
Wind: from the W (260 degrees) at 18 MPH (16 KT) gusting to 28 MPH (24 KT):0
Visibility: 10 mile(s):0
Sky conditions: clear
Temperature: 46 F (8 C)
Dew Point: 32 F (0 C)
Relative Humidity: 56%
Pressure (altimeter): 29.72 in. Hg (1006 hPa)
ob: KJVL 230215Z AUTO 26016G24KT 10SM CLR 08/00 A2972 RMK AO2
cycle: 2

Station Type Date Time Source
KJVL TAF UTC NOAA

Error!

Example: see airport list